sensor_id;sensor_type;location;lat;lon;timestamp;temperature;humidity
70708;SHT30;58277;47.316;18.908;2023-02-02T00:02:06;5.32;78.45
70708;SHT30;58277;47.316;18.908;2023-02-02T00:04:34;5.11;78.70
70708;SHT30;58277;47.316;18.908;2023-02-02T00:06:57;5.04;78.96
70708;SHT30;58277;47.316;18.908;2023-02-02T00:09:20;4.93;79.21
70708;SHT30;58277;47.316;18.908;2023-02-02T00:11:44;5.00;79.27
70708;SHT30;58277;47.316;18.908;2023-02-02T00:14:07;5.05;78.77
70708;SHT30;58277;47.316;18.908;2023-02-02T00:18:53;4.92;77.74
70708;SHT30;58277;47.316;18.908;2023-02-02T00:21:17;4.95;77.81
70708;SHT30;58277;47.316;18.908;2023-02-02T00:23:39;4.99;77.64
70708;SHT30;58277;47.316;18.908;2023-02-02T00:26:02;5.00;77.26
70708;SHT30;58277;47.316;18.908;2023-02-02T00:28:25;5.00;77.10
70708;SHT30;58277;47.316;18.908;2023-02-02T00:30:47;5.05;77.17
70708;SHT30;58277;47.316;18.908;2023-02-02T00:33:10;5.05;76.59
70708;SHT30;58277;47.316;18.908;2023-02-02T00:35:33;5.09;76.25
70708;SHT30;58277;47.316;18.908;2023-02-02T00:37:55;5.06;76.35
70708;SHT30;58277;47.316;18.908;2023-02-02T00:40:18;4.99;76.62
70708;SHT30;58277;47.316;18.908;2023-02-02T00:42:41;4.92;76.78
70708;SHT30;58277;47.316;18.908;2023-02-02T00:45:05;4.91;76.01
70708;SHT30;58277;47.316;18.908;2023-02-02T00:47:43;4.92;75.43
70708;SHT30;58277;47.316;18.908;2023-02-02T00:50:07;4.95;75.93
70708;SHT30;58277;47.316;18.908;2023-02-02T00:52:30;4.96;75.80
70708;SHT30;58277;47.316;18.908;2023-02-02T00:54:53;4.99;75.43
70708;SHT30;58277;47.316;18.908;2023-02-02T00:57:16;5.06;74.98
70708;SHT30;58277;47.316;18.908;2023-02-02T00:59:40;5.20;73.00
70708;SHT30;58277;47.316;18.908;2023-02-02T01:02:02;5.36;71.75
70708;SHT30;58277;47.316;18.908;2023-02-02T01:04:25;5.36;72.53
70708;SHT30;58277;47.316;18.908;2023-02-02T01:06:48;5.29;73.46
70708;SHT30;58277;47.316;18.908;2023-02-02T01:09:11;5.20;73.77
70708;SHT30;58277;47.316;18.908;2023-02-02T01:11:34;5.19;73.92
70708;SHT30;58277;47.316;18.908;2023-02-02T01:13:56;5.13;74.48
70708;SHT30;58277;47.316;18.908;2023-02-02T01:16:19;5.09;75.21
70708;SHT30;58277;47.316;18.908;2023-02-02T01:18:44;5.02;75.47
70708;SHT30;58277;47.316;18.908;2023-02-02T01:21:09;5.02;75.81
70708;SHT30;58277;47.316;18.908;2023-02-02T01:23:33;4.96;75.96
70708;SHT30;58277;47.316;18.908;2023-02-02T01:25:59;4.96;76.03
70708;SHT30;58277;47.316;18.908;2023-02-02T01:28:23;4.95;76.34
70708;SHT30;58277;47.316;18.908;2023-02-02T01:30:46;4.93;76.89
70708;SHT30;58277;47.316;18.908;2023-02-02T01:33:09;4.89;78.03
70708;SHT30;58277;47.316;18.908;2023-02-02T01:35:32;4.82;79.27
70708;SHT30;58277;47.316;18.908;2023-02-02T01:37:55;4.67;80.49
70708;SHT30;58277;47.316;18.908;2023-02-02T01:40:17;4.49;81.43
70708;SHT30;58277;47.316;18.908;2023-02-02T01:42:40;4.33;82.27
70708;SHT30;58277;47.316;18.908;2023-02-02T01:45:08;4.19;82.95
70708;SHT30;58277;47.316;18.908;2023-02-02T01:47:40;4.14;83.22
70708;SHT30;58277;47.316;18.908;2023-02-02T01:50:05;4.06;83.53
70708;SHT30;58277;47.316;18.908;2023-02-02T01:52:31;4.03;83.71
70708;SHT30;58277;47.316;18.908;2023-02-02T01:54:59;3.98;83.73
70708;SHT30;58277;47.316;18.908;2023-02-02T01:57:28;3.99;84.09
70708;SHT30;58277;47.316;18.908;2023-02-02T01:59:53;3.99;83.72
70708;SHT30;58277;47.316;18.908;2023-02-02T02:02:18;3.98;83.99
70708;SHT30;58277;47.316;18.908;2023-02-02T02:04:41;4.03;83.81
70708;SHT30;58277;47.316;18.908;2023-02-02T02:07:06;4.01;83.76
70708;SHT30;58277;47.316;18.908;2023-02-02T02:09:28;3.98;83.92
70708;SHT30;58277;47.316;18.908;2023-02-02T02:11:53;4.03;83.88
70708;SHT30;58277;47.316;18.908;2023-02-02T02:14:16;3.92;84.19
70708;SHT30;58277;47.316;18.908;2023-02-02T02:17:13;3.99;83.90
70708;SHT30;58277;47.316;18.908;2023-02-02T02:20:25;3.99;83.87
70708;SHT30;58277;47.316;18.908;2023-02-02T02:30:04;4.03;83.73
70708;SHT30;58277;47.316;18.908;2023-02-02T02:40:27;4.19;83.61
70708;SHT30;58277;47.316;18.908;2023-02-02T02:42:59;4.23;83.16
70708;SHT30;58277;47.316;18.908;2023-02-02T02:45:24;4.24;83.09
70708;SHT30;58277;47.316;18.908;2023-02-02T02:47:49;4.30;82.80
70708;SHT30;58277;47.316;18.908;2023-02-02T02:50:11;4.32;82.75
70708;SHT30;58277;47.316;18.908;2023-02-02T02:52:35;4.39;82.66
70708;SHT30;58277;47.316;18.908;2023-02-02T02:54:59;4.41;82.63
70708;SHT30;58277;47.316;18.908;2023-02-02T03:02:38;4.28;83.84
70708;SHT30;58277;47.316;18.908;2023-02-02T03:08:09;4.19;83.84
70708;SHT30;58277;47.316;18.908;2023-02-02T03:10:34;4.14;83.49
70708;SHT30;58277;47.316;18.908;2023-02-02T03:12:57;4.12;83.50
70708;SHT30;58277;47.316;18.908;2023-02-02T03:15:20;4.10;83.67
70708;SHT30;58277;47.316;18.908;2023-02-02T03:17:45;4.07;83.62
70708;SHT30;58277;47.316;18.908;2023-02-02T03:20:09;4.05;83.58
70708;SHT30;58277;47.316;18.908;2023-02-02T03:22:32;4.03;83.18
70708;SHT30;58277;47.316;18.908;2023-02-02T03:24:55;4.07;82.72
70708;SHT30;58277;47.316;18.908;2023-02-02T03:27:18;4.07;83.04
70708;SHT30;58277;47.316;18.908;2023-02-02T03:29:40;4.07;82.96
70708;SHT30;58277;47.316;18.908;2023-02-02T03:32:03;4.09;82.84
70708;SHT30;58277;47.316;18.908;2023-02-02T03:34:26;4.07;82.78
70708;SHT30;58277;47.316;18.908;2023-02-02T03:36:49;4.02;83.51
70708;SHT30;58277;47.316;18.908;2023-02-02T03:39:11;3.98;84.26
70708;SHT30;58277;47.316;18.908;2023-02-02T03:41:34;3.89;84.46
70708;SHT30;58277;47.316;18.908;2023-02-02T03:43:56;3.75;84.72
70708;SHT30;58277;47.316;18.908;2023-02-02T03:46:19;3.68;84.79
70708;SHT30;58277;47.316;18.908;2023-02-02T03:48:42;3.63;84.88
70708;SHT30;58277;47.316;18.908;2023-02-02T03:51:09;3.63;84.84
70708;SHT30;58277;47.316;18.908;2023-02-02T03:53:36;3.55;84.86
70708;SHT30;58277;47.316;18.908;2023-02-02T03:55:59;3.51;85.07
70708;SHT30;58277;47.316;18.908;2023-02-02T03:58:22;3.37;85.32
70708;SHT30;58277;47.316;18.908;2023-02-02T04:00:45;3.30;85.42
70708;SHT30;58277;47.316;18.908;2023-02-02T04:03:08;3.26;85.58
70708;SHT30;58277;47.316;18.908;2023-02-02T04:05:31;3.13;85.92
70708;SHT30;58277;47.316;18.908;2023-02-02T04:07:54;3.00;86.26
70708;SHT30;58277;47.316;18.908;2023-02-02T04:10:17;2.95;86.66
70708;SHT30;58277;47.316;18.908;2023-02-02T04:12:39;2.86;86.92
70708;SHT30;58277;47.316;18.908;2023-02-02T04:15:02;2.78;86.96
70708;SHT30;58277;47.316;18.908;2023-02-02T04:17:25;2.69;87.20
70708;SHT30;58277;47.316;18.908;2023-02-02T04:19:48;2.65;86.98
70708;SHT30;58277;47.316;18.908;2023-02-02T04:22:11;2.65;86.80
70708;SHT30;58277;47.316;18.908;2023-02-02T04:24:33;2.75;85.95
70708;SHT30;58277;47.316;18.908;2023-02-02T04:26:59;2.72;85.60
70708;SHT30;58277;47.316;18.908;2023-02-02T04:29:22;2.74;85.65
70708;SHT30;58277;47.316;18.908;2023-02-02T04:31:44;2.77;85.49
70708;SHT30;58277;47.316;18.908;2023-02-02T04:34:07;2.74;85.60
70708;SHT30;58277;47.316;18.908;2023-02-02T04:36:30;2.72;85.54
70708;SHT30;58277;47.316;18.908;2023-02-02T04:38:53;2.69;85.44
70708;SHT30;58277;47.316;18.908;2023-02-02T04:41:16;2.68;85.48
70708;SHT30;58277;47.316;18.908;2023-02-02T04:44:02;2.66;85.33
70708;SHT30;58277;47.316;18.908;2023-02-02T04:46:45;2.64;85.35
70708;SHT30;58277;47.316;18.908;2023-02-02T04:49:11;2.62;85.34
70708;SHT30;58277;47.316;18.908;2023-02-02T04:51:34;2.58;85.46
70708;SHT30;58277;47.316;18.908;2023-02-02T04:53:56;2.62;85.30
70708;SHT30;58277;47.316;18.908;2023-02-02T04:56:19;2.54;85.42
70708;SHT30;58277;47.316;18.908;2023-02-02T04:58:43;2.55;85.40
70708;SHT30;58277;47.316;18.908;2023-02-02T05:03:31;2.52;84.98
70708;SHT30;58277;47.316;18.908;2023-02-02T05:06:01;2.55;84.86
70708;SHT30;58277;47.316;18.908;2023-02-02T05:08:25;2.57;84.65
70708;SHT30;58277;47.316;18.908;2023-02-02T05:10:47;2.62;84.65
70708;SHT30;58277;47.316;18.908;2023-02-02T05:13:11;2.57;84.55
70708;SHT30;58277;47.316;18.908;2023-02-02T05:15:34;2.58;84.43
70708;SHT30;58277;47.316;18.908;2023-02-02T05:17:57;2.57;84.37
70708;SHT30;58277;47.316;18.908;2023-02-02T05:20:19;2.55;84.37
70708;SHT30;58277;47.316;18.908;2023-02-02T05:22:42;2.55;84.45
70708;SHT30;58277;47.316;18.908;2023-02-02T05:25:05;2.55;84.53
70708;SHT30;58277;47.316;18.908;2023-02-02T05:27:28;2.54;84.50
70708;SHT30;58277;47.316;18.908;2023-02-02T05:29:52;2.44;84.63
70708;SHT30;58277;47.316;18.908;2023-02-02T05:32:15;2.41;84.85
70708;SHT30;58277;47.316;18.908;2023-02-02T05:34:38;2.41;84.92
70708;SHT30;58277;47.316;18.908;2023-02-02T05:37:00;2.36;84.98
70708;SHT30;58277;47.316;18.908;2023-02-02T05:39:23;2.38;84.89
70708;SHT30;58277;47.316;18.908;2023-02-02T05:41:46;2.40;84.91
70708;SHT30;58277;47.316;18.908;2023-02-02T05:44:11;2.42;84.72
70708;SHT30;58277;47.316;18.908;2023-02-02T05:46:35;2.44;84.81
70708;SHT30;58277;47.316;18.908;2023-02-02T05:48:57;2.42;84.84
70708;SHT30;58277;47.316;18.908;2023-02-02T05:51:27;2.44;84.80
70708;SHT30;58277;47.316;18.908;2023-02-02T05:53:50;2.40;84.91
70708;SHT30;58277;47.316;18.908;2023-02-02T05:56:13;2.38;84.91
70708;SHT30;58277;47.316;18.908;2023-02-02T05:58:38;2.33;85.34
70708;SHT30;58277;47.316;18.908;2023-02-02T06:01:01;2.36;85.16
70708;SHT30;58277;47.316;18.908;2023-02-02T06:03:23;2.36;85.19
70708;SHT30;58277;47.316;18.908;2023-02-02T06:05:46;2.36;85.26
70708;SHT30;58277;47.316;18.908;2023-02-02T06:08:09;2.40;85.27
70708;SHT30;58277;47.316;18.908;2023-02-02T06:10:32;2.38;85.18
70708;SHT30;58277;47.316;18.908;2023-02-02T06:12:55;2.36;85.37
70708;SHT30;58277;47.316;18.908;2023-02-02T06:15:17;2.34;85.14
70708;SHT30;58277;47.316;18.908;2023-02-02T06:17:40;2.38;85.19
70708;SHT30;58277;47.316;18.908;2023-02-02T06:20:03;2.37;85.23
70708;SHT30;58277;47.316;18.908;2023-02-02T06:22:26;2.42;84.97
70708;SHT30;58277;47.316;18.908;2023-02-02T06:24:49;2.45;84.75
70708;SHT30;58277;47.316;18.908;2023-02-02T06:27:14;2.48;84.65
70708;SHT30;58277;47.316;18.908;2023-02-02T06:29:37;2.52;84.53
70708;SHT30;58277;47.316;18.908;2023-02-02T06:32:00;2.58;84.12
70708;SHT30;58277;47.316;18.908;2023-02-02T06:34:23;2.61;83.97
70708;SHT30;58277;47.316;18.908;2023-02-02T06:36:45;2.72;83.22
70708;SHT30;58277;47.316;18.908;2023-02-02T06:39:08;2.74;83.35
70708;SHT30;58277;47.316;18.908;2023-02-02T06:41:31;2.75;83.42
70708;SHT30;58277;47.316;18.908;2023-02-02T06:43:54;2.84;83.28
70708;SHT30;58277;47.316;18.908;2023-02-02T06:46:17;2.88;82.77
70708;SHT30;58277;47.316;18.908;2023-02-02T06:48:40;3.02;82.26
70708;SHT30;58277;47.316;18.908;2023-02-02T06:51:03;3.10;82.21
70708;SHT30;58277;47.316;18.908;2023-02-02T06:53:26;3.27;81.43
70708;SHT30;58277;47.316;18.908;2023-02-02T06:55:57;3.31;81.07
70708;SHT30;58277;47.316;18.908;2023-02-02T06:58:19;3.53;80.17
70708;SHT30;58277;47.316;18.908;2023-02-02T07:00:43;3.77;78.98
70708;SHT30;58277;47.316;18.908;2023-02-02T07:03:06;4.02;77.93
70708;SHT30;58277;47.316;18.908;2023-02-02T07:05:29;4.13;77.79
70708;SHT30;58277;47.316;18.908;2023-02-02T07:07:53;4.34;76.67
70708;SHT30;58277;47.316;18.908;2023-02-02T07:10:16;4.67;75.48
70708;SHT30;58277;47.316;18.908;2023-02-02T07:13:00;4.77;74.60
70708;SHT30;58277;47.316;18.908;2023-02-02T07:15:23;4.71;74.82
70708;SHT30;58277;47.316;18.908;2023-02-02T07:17:47;4.75;75.26
70708;SHT30;58277;47.316;18.908;2023-02-02T07:20:10;4.72;75.03
70708;SHT30;58277;47.316;18.908;2023-02-02T07:22:33;4.96;74.74
70708;SHT30;58277;47.316;18.908;2023-02-02T07:24:55;4.87;74.62
70708;SHT30;58277;47.316;18.908;2023-02-02T07:27:18;4.96;74.40
70708;SHT30;58277;47.316;18.908;2023-02-02T07:29:41;4.91;73.73
70708;SHT30;58277;47.316;18.908;2023-02-02T07:32:04;4.92;73.78
70708;SHT30;58277;47.316;18.908;2023-02-02T07:34:27;4.81;73.84
70708;SHT30;58277;47.316;18.908;2023-02-02T07:36:50;4.88;73.47
70708;SHT30;58277;47.316;18.908;2023-02-02T07:39:13;5.11;72.82
70708;SHT30;58277;47.316;18.908;2023-02-02T07:41:36;5.04;73.10
70708;SHT30;58277;47.316;18.908;2023-02-02T07:43:58;5.23;72.52
70708;SHT30;58277;47.316;18.908;2023-02-02T07:46:21;5.33;72.54
70708;SHT30;58277;47.316;18.908;2023-02-02T07:48:45;5.25;72.41
70708;SHT30;58277;47.316;18.908;2023-02-02T07:51:11;5.32;72.56
70708;SHT30;58277;47.316;18.908;2023-02-02T07:53:34;5.47;72.20
70708;SHT30;58277;47.316;18.908;2023-02-02T07:56:06;5.44;72.26
70708;SHT30;58277;47.316;18.908;2023-02-02T07:58:29;5.53;72.14
70708;SHT30;58277;47.316;18.908;2023-02-02T08:00:52;5.48;72.41
70708;SHT30;58277;47.316;18.908;2023-02-02T08:03:15;5.36;72.55
70708;SHT30;58277;47.316;18.908;2023-02-02T08:05:38;5.46;72.67
70708;SHT30;58277;47.316;18.908;2023-02-02T08:08:03;5.44;72.35
70708;SHT30;58277;47.316;18.908;2023-02-02T08:10:27;5.74;71.44
70708;SHT30;58277;47.316;18.908;2023-02-02T08:12:50;6.11;70.37
70708;SHT30;58277;47.316;18.908;2023-02-02T08:15:12;6.19;69.85
70708;SHT30;58277;47.316;18.908;2023-02-02T08:17:35;6.16;69.75
70708;SHT30;58277;47.316;18.908;2023-02-02T08:19:58;6.28;69.40
70708;SHT30;58277;47.316;18.908;2023-02-02T08:22:21;6.46;68.45
70708;SHT30;58277;47.316;18.908;2023-02-02T08:24:44;6.49;68.74
70708;SHT30;58277;47.316;18.908;2023-02-02T08:27:08;6.49;68.31
70708;SHT30;58277;47.316;18.908;2023-02-02T08:29:31;6.53;67.75
70708;SHT30;58277;47.316;18.908;2023-02-02T08:31:53;6.42;68.80
70708;SHT30;58277;47.316;18.908;2023-02-02T08:34:16;6.11;69.02
70708;SHT30;58277;47.316;18.908;2023-02-02T08:36:39;6.01;69.70
70708;SHT30;58277;47.316;18.908;2023-02-02T08:39:05;5.91;70.01
70708;SHT30;58277;47.316;18.908;2023-02-02T08:41:29;5.97;69.59
70708;SHT30;58277;47.316;18.908;2023-02-02T08:43:51;6.11;68.91
70708;SHT30;58277;47.316;18.908;2023-02-02T08:46:16;6.36;68.94
70708;SHT30;58277;47.316;18.908;2023-02-02T08:48:40;6.77;67.75
70708;SHT30;58277;47.316;18.908;2023-02-02T08:51:04;6.80;67.51
70708;SHT30;58277;47.316;18.908;2023-02-02T08:53:30;6.78;66.94
70708;SHT30;58277;47.316;18.908;2023-02-02T08:56:04;6.60;67.70
70708;SHT30;58277;47.316;18.908;2023-02-02T08:58:28;6.46;67.85
70708;SHT30;58277;47.316;18.908;2023-02-02T09:00:53;6.33;67.92
70708;SHT30;58277;47.316;18.908;2023-02-02T09:03:16;6.28;68.19
70708;SHT30;58277;47.316;18.908;2023-02-02T09:05:39;6.28;67.69
70708;SHT30;58277;47.316;18.908;2023-02-02T09:08:02;6.26;67.50
70708;SHT30;58277;47.316;18.908;2023-02-02T09:10:25;6.40;67.98
70708;SHT30;58277;47.316;18.908;2023-02-02T09:12:47;6.67;67.42
70708;SHT30;58277;47.316;18.908;2023-02-02T09:15:10;6.84;67.02
70708;SHT30;58277;47.316;18.908;2023-02-02T09:17:34;7.11;66.50
70708;SHT30;58277;47.316;18.908;2023-02-02T09:19:56;7.18;65.13
70708;SHT30;58277;47.316;18.908;2023-02-02T09:22:19;7.26;64.50
70708;SHT30;58277;47.316;18.908;2023-02-02T09:24:42;7.47;63.70
70708;SHT30;58277;47.316;18.908;2023-02-02T09:27:05;7.36;63.09
70708;SHT30;58277;47.316;18.908;2023-02-02T09:29:28;7.49;62.24
70708;SHT30;58277;47.316;18.908;2023-02-02T09:31:51;7.55;62.43
70708;SHT30;58277;47.316;18.908;2023-02-02T09:34:14;7.43;61.76
70708;SHT30;58277;47.316;18.908;2023-02-02T09:36:38;7.50;60.92
70708;SHT30;58277;47.316;18.908;2023-02-02T09:39:02;7.80;61.16
70708;SHT30;58277;47.316;18.908;2023-02-02T09:41:35;7.70;60.49
70708;SHT30;58277;47.316;18.908;2023-02-02T09:47:34;7.90;62.84
70708;SHT30;58277;47.316;18.908;2023-02-02T09:57:49;8.56;59.79
70708;SHT30;58277;47.316;18.908;2023-02-02T10:00:28;8.74;59.84
70708;SHT30;58277;47.316;18.908;2023-02-02T10:02:56;8.69;59.42
70708;SHT30;58277;47.316;18.908;2023-02-02T10:05:26;8.46;59.48
70708;SHT30;58277;47.316;18.908;2023-02-02T10:07:53;8.39;59.19
70708;SHT30;58277;47.316;18.908;2023-02-02T10:10:32;8.28;60.44
70708;SHT30;58277;47.316;18.908;2023-02-02T10:12:57;8.18;59.72
70708;SHT30;58277;47.316;18.908;2023-02-02T10:20:46;8.29;60.14
70708;SHT30;58277;47.316;18.908;2023-02-02T10:23:33;8.35;59.33
70708;SHT30;58277;47.316;18.908;2023-02-02T10:34:32;8.31;60.60
70708;SHT30;58277;47.316;18.908;2023-02-02T10:37:25;8.15;60.41
70708;SHT30;58277;47.316;18.908;2023-02-02T10:45:34;7.97;60.34
70708;SHT30;58277;47.316;18.908;2023-02-02T10:47:59;8.05;60.89
70708;SHT30;58277;47.316;18.908;2023-02-02T10:50:22;8.11;61.15
70708;SHT30;58277;47.316;18.908;2023-02-02T10:52:53;8.22;59.41
70708;SHT30;58277;47.316;18.908;2023-02-02T10:56:04;8.11;59.51
70708;SHT30;58277;47.316;18.908;2023-02-02T10:58:34;7.99;60.30
70708;SHT30;58277;47.316;18.908;2023-02-02T11:00:58;7.91;60.78
70708;SHT30;58277;47.316;18.908;2023-02-02T11:03:27;7.99;60.09
70708;SHT30;58277;47.316;18.908;2023-02-02T11:05:50;8.14;60.84
70708;SHT30;58277;47.316;18.908;2023-02-02T11:08:38;8.36;60.55
70708;SHT30;58277;47.316;18.908;2023-02-02T11:13:40;8.50;59.96
70708;SHT30;58277;47.316;18.908;2023-02-02T11:16:17;8.28;59.65
70708;SHT30;58277;47.316;18.908;2023-02-02T11:18:42;8.31;59.46
70708;SHT30;58277;47.316;18.908;2023-02-02T11:21:29;8.28;60.33
70708;SHT30;58277;47.316;18.908;2023-02-02T11:24:00;8.29;60.19
70708;SHT30;58277;47.316;18.908;2023-02-02T11:26:25;8.28;59.32
70708;SHT30;58277;47.316;18.908;2023-02-02T11:28:50;8.32;59.67
70708;SHT30;58277;47.316;18.908;2023-02-02T11:31:36;8.31;58.71
70708;SHT30;58277;47.316;18.908;2023-02-02T11:36:34;8.45;58.99
70708;SHT30;58277;47.316;18.908;2023-02-02T11:39:19;8.29;59.26
70708;SHT30;58277;47.316;18.908;2023-02-02T11:41:42;8.38;59.65
70708;SHT30;58277;47.316;18.908;2023-02-02T11:44:04;8.53;60.00
70708;SHT30;58277;47.316;18.908;2023-02-02T11:46:29;8.62;58.87
70708;SHT30;58277;47.316;18.908;2023-02-02T11:51:23;8.70;59.10
70708;SHT30;58277;47.316;18.908;2023-02-02T11:53:47;8.71;58.89
70708;SHT30;58277;47.316;18.908;2023-02-02T11:56:23;8.74;60.09
70708;SHT30;58277;47.316;18.908;2023-02-02T11:58:49;8.80;58.38
70708;SHT30;58277;47.316;18.908;2023-02-02T12:01:33;8.56;59.22
70708;SHT30;58277;47.316;18.908;2023-02-02T12:04:19;8.70;59.57
70708;SHT30;58277;47.316;18.908;2023-02-02T12:06:44;8.84;59.53
70708;SHT30;58277;47.316;18.908;2023-02-02T12:09:24;8.80;58.27
70708;SHT30;58277;47.316;18.908;2023-02-02T12:14:37;8.71;58.42
70708;SHT30;58277;47.316;18.908;2023-02-02T12:17:54;8.57;58.48
70708;SHT30;58277;47.316;18.908;2023-02-02T12:27:56;8.21;60.34
70708;SHT30;58277;47.316;18.908;2023-02-02T12:33:01;8.36;58.80
70708;SHT30;58277;47.316;18.908;2023-02-02T12:43:37;8.42;59.09
70708;SHT30;58277;47.316;18.908;2023-02-02T12:48:49;8.69;58.00
70708;SHT30;58277;47.316;18.908;2023-02-02T12:54:35;8.84;58.39
70708;SHT30;58277;47.316;18.908;2023-02-02T13:06:00;8.66;58.10
70708;SHT30;58277;47.316;18.908;2023-02-02T13:08:48;8.57;59.13
70708;SHT30;58277;47.316;18.908;2023-02-02T13:11:23;8.49;59.06
70708;SHT30;58277;47.316;18.908;2023-02-02T13:14:23;8.36;58.88
70708;SHT30;58277;47.316;18.908;2023-02-02T13:16:46;8.50;58.64
70708;SHT30;58277;47.316;18.908;2023-02-02T13:19:14;8.43;59.37
70708;SHT30;58277;47.316;18.908;2023-02-02T13:21:42;8.39;59.42
70708;SHT30;58277;47.316;18.908;2023-02-02T13:24:09;8.36;60.27
70708;SHT30;58277;47.316;18.908;2023-02-02T13:26:37;8.31;60.14
70708;SHT30;58277;47.316;18.908;2023-02-02T13:29:05;8.33;59.60
70708;SHT30;58277;47.316;18.908;2023-02-02T13:34:09;8.29;59.21
70708;SHT30;58277;47.316;18.908;2023-02-02T13:36:38;8.08;60.27
70708;SHT30;58277;47.316;18.908;2023-02-02T13:39:19;8.01;60.89
70708;SHT30;58277;47.316;18.908;2023-02-02T13:41:44;7.90;60.34
70708;SHT30;58277;47.316;18.908;2023-02-02T13:44:14;7.94;59.99
70708;SHT30;58277;47.316;18.908;2023-02-02T14:01:24;7.83;61.39
70708;SHT30;58277;47.316;18.908;2023-02-02T14:03:53;7.73;60.93
70708;SHT30;58277;47.316;18.908;2023-02-02T14:06:21;7.80;61.63
70708;SHT30;58277;47.316;18.908;2023-02-02T14:08:54;7.74;61.29
70708;SHT30;58277;47.316;18.908;2023-02-02T14:11:32;7.60;61.68
70708;SHT30;58277;47.316;18.908;2023-02-02T14:14:17;7.45;62.08
70708;SHT30;58277;47.316;18.908;2023-02-02T14:16:53;7.43;61.93
70708;SHT30;58277;47.316;18.908;2023-02-02T14:22:15;7.46;61.87
70708;SHT30;58277;47.316;18.908;2023-02-02T14:24:45;7.46;62.15
70708;SHT30;58277;47.316;18.908;2023-02-02T14:34:40;7.50;61.37
70708;SHT30;58277;47.316;18.908;2023-02-02T14:42:50;7.14;63.02
70708;SHT30;58277;47.316;18.908;2023-02-02T14:45:40;7.01;63.68
70708;SHT30;58277;47.316;18.908;2023-02-02T14:55:35;6.85;64.05
70708;SHT30;58277;47.316;18.908;2023-02-02T14:58:01;6.73;64.70
70708;SHT30;58277;47.316;18.908;2023-02-02T15:00:31;6.70;64.84
70708;SHT30;58277;47.316;18.908;2023-02-02T15:02:55;6.67;64.85
70708;SHT30;58277;47.316;18.908;2023-02-02T15:13:14;6.08;66.85
70708;SHT30;58277;47.316;18.908;2023-02-02T15:15:39;6.02;66.98
70708;SHT30;58277;47.316;18.908;2023-02-02T15:18:12;5.88;67.39
70708;SHT30;58277;47.316;18.908;2023-02-02T15:20:48;5.75;68.06
70708;SHT30;58277;47.316;18.908;2023-02-02T15:23:30;5.65;68.48
70708;SHT30;58277;47.316;18.908;2023-02-02T15:26:03;5.50;68.80
70708;SHT30;58277;47.316;18.908;2023-02-02T15:28:58;5.44;69.08
70708;SHT30;58277;47.316;18.908;2023-02-02T15:37:14;5.22;69.62
70708;SHT30;58277;47.316;18.908;2023-02-02T15:39:39;5.19;69.39
70708;SHT30;58277;47.316;18.908;2023-02-02T15:42:06;5.15;69.43
70708;SHT30;58277;47.316;18.908;2023-02-02T15:44:53;5.11;69.53
70708;SHT30;58277;47.316;18.908;2023-02-02T15:47:19;5.04;69.96
70708;SHT30;58277;47.316;18.908;2023-02-02T15:49:43;4.92;70.25
70708;SHT30;58277;47.316;18.908;2023-02-02T15:52:24;4.87;70.85
70708;SHT30;58277;47.316;18.908;2023-02-02T15:54:58;4.79;70.94
70708;SHT30;58277;47.316;18.908;2023-02-02T15:57:35;4.77;71.09
70708;SHT30;58277;47.316;18.908;2023-02-02T15:59:59;4.81;70.89
70708;SHT30;58277;47.316;18.908;2023-02-02T16:02:42;4.77;70.77
70708;SHT30;58277;47.316;18.908;2023-02-02T16:07:46;4.67;71.58
70708;SHT30;58277;47.316;18.908;2023-02-02T16:10:26;4.61;71.53
70708;SHT30;58277;47.316;18.908;2023-02-02T16:12:48;4.54;71.65
70708;SHT30;58277;47.316;18.908;2023-02-02T16:15:20;4.49;72.08
70708;SHT30;58277;47.316;18.908;2023-02-02T16:17:43;4.58;71.94
70708;SHT30;58277;47.316;18.908;2023-02-02T16:20:12;4.60;72.02
70708;SHT30;58277;47.316;18.908;2023-02-02T16:22:37;4.53;72.38
70708;SHT30;58277;47.316;18.908;2023-02-02T16:25:05;4.50;72.71
70708;SHT30;58277;47.316;18.908;2023-02-02T16:27:29;4.64;71.87
70708;SHT30;58277;47.316;18.908;2023-02-02T16:29:55;4.62;72.36
70708;SHT30;58277;47.316;18.908;2023-02-02T16:32:31;4.65;71.97
70708;SHT30;58277;47.316;18.908;2023-02-02T16:34:54;4.64;72.25
70708;SHT30;58277;47.316;18.908;2023-02-02T16:37:27;4.65;72.27
70708;SHT30;58277;47.316;18.908;2023-02-02T16:39:50;4.58;72.64
70708;SHT30;58277;47.316;18.908;2023-02-02T16:42:23;4.60;72.43
70708;SHT30;58277;47.316;18.908;2023-02-02T16:44:46;4.58;72.61
70708;SHT30;58277;47.316;18.908;2023-02-02T16:49:48;4.47;72.78
70708;SHT30;58277;47.316;18.908;2023-02-02T16:52:15;4.43;72.88
70708;SHT30;58277;47.316;18.908;2023-02-02T16:54:41;4.43;73.60
70708;SHT30;58277;47.316;18.908;2023-02-02T16:57:15;4.40;73.10
70708;SHT30;58277;47.316;18.908;2023-02-02T16:59:39;4.30;73.86
70708;SHT30;58277;47.316;18.908;2023-02-02T17:02:23;4.33;73.67
70708;SHT30;58277;47.316;18.908;2023-02-02T17:04:49;4.28;73.89
70708;SHT30;58277;47.316;18.908;2023-02-02T17:07:13;4.29;74.09
70708;SHT30;58277;47.316;18.908;2023-02-02T17:09:39;4.17;74.63
70708;SHT30;58277;47.316;18.908;2023-02-02T17:12:22;4.22;74.31
70708;SHT30;58277;47.316;18.908;2023-02-02T17:14:58;4.28;74.41
70708;SHT30;58277;47.316;18.908;2023-02-02T17:17:23;4.24;74.16
70708;SHT30;58277;47.316;18.908;2023-02-02T17:19:46;4.26;74.31
70708;SHT30;58277;47.316;18.908;2023-02-02T17:22:09;4.22;74.42
70708;SHT30;58277;47.316;18.908;2023-02-02T17:24:33;4.22;74.13
70708;SHT30;58277;47.316;18.908;2023-02-02T17:26:57;4.13;74.55
70708;SHT30;58277;47.316;18.908;2023-02-02T17:29:20;4.19;74.43
70708;SHT30;58277;47.316;18.908;2023-02-02T17:31:43;4.16;74.46
70708;SHT30;58277;47.316;18.908;2023-02-02T17:34:13;4.19;74.12
70708;SHT30;58277;47.316;18.908;2023-02-02T17:36:37;4.29;74.15
70708;SHT30;58277;47.316;18.908;2023-02-02T17:39:00;4.29;74.06
70708;SHT30;58277;47.316;18.908;2023-02-02T17:41:23;4.33;73.48
70708;SHT30;58277;47.316;18.908;2023-02-02T17:43:46;4.34;73.63
70708;SHT30;58277;47.316;18.908;2023-02-02T17:46:10;4.37;73.78
70708;SHT30;58277;47.316;18.908;2023-02-02T17:48:34;4.33;74.07
70708;SHT30;58277;47.316;18.908;2023-02-02T17:50:59;4.36;74.25
70708;SHT30;58277;47.316;18.908;2023-02-02T17:53:24;4.43;73.88
70708;SHT30;58277;47.316;18.908;2023-02-02T17:55:49;4.56;73.47
70708;SHT30;58277;47.316;18.908;2023-02-02T17:58:13;4.51;73.84
70708;SHT30;58277;47.316;18.908;2023-02-02T18:00:39;4.54;73.50
70708;SHT30;58277;47.316;18.908;2023-02-02T18:03:13;4.43;74.01
70708;SHT30;58277;47.316;18.908;2023-02-02T18:05:38;4.46;73.98
70708;SHT30;58277;47.316;18.908;2023-02-02T18:08:04;4.37;74.22
70708;SHT30;58277;47.316;18.908;2023-02-02T18:10:27;4.19;74.89